sensor_id;sensor_type;location;lat;lon;timestamp;temperature;humidity
3198;DHT22;1611;49.394;11.136;2024-02-23T00:01:23;9.80;73.60
3198;DHT22;1611;49.394;11.136;2024-02-23T00:03:50;9.80;72.50
3198;DHT22;1611;49.394;11.136;2024-02-23T00:06:18;9.70;70.80
3198;DHT22;1611;49.394;11.136;2024-02-23T00:08:45;9.70;69.90
3198;DHT22;1611;49.394;11.136;2024-02-23T00:11:12;9.80;71.20
3198;DHT22;1611;49.394;11.136;2024-02-23T00:13:39;9.70;70.00
3198;DHT22;1611;49.394;11.136;2024-02-23T00:16:06;9.80;70.70
3198;DHT22;1611;49.394;11.136;2024-02-23T00:18:32;9.80;69.00
3198;DHT22;1611;49.394;11.136;2024-02-23T00:20:59;9.80;70.40
3198;DHT22;1611;49.394;11.136;2024-02-23T00:23:27;9.70;68.70
3198;DHT22;1611;49.394;11.136;2024-02-23T00:25:54;9.60;69.80
3198;DHT22;1611;49.394;11.136;2024-02-23T00:28:21;9.60;67.20
3198;DHT22;1611;49.394;11.136;2024-02-23T00:30:48;9.50;65.30
3198;DHT22;1611;49.394;11.136;2024-02-23T00:33:15;9.60;67.50
3198;DHT22;1611;49.394;11.136;2024-02-23T00:35:41;9.60;66.60
3198;DHT22;1611;49.394;11.136;2024-02-23T00:38:08;9.50;63.00
3198;DHT22;1611;49.394;11.136;2024-02-23T00:40:36;9.60;62.00
3198;DHT22;1611;49.394;11.136;2024-02-23T00:43:03;9.50;61.50
3198;DHT22;1611;49.394;11.136;2024-02-23T00:45:31;9.50;63.60
3198;DHT22;1611;49.394;11.136;2024-02-23T00:47:58;9.50;62.70
3198;DHT22;1611;49.394;11.136;2024-02-23T00:50:24;9.50;59.20
3198;DHT22;1611;49.394;11.136;2024-02-23T00:52:52;9.40;57.30
3198;DHT22;1611;49.394;11.136;2024-02-23T00:55:19;9.30;59.40
3198;DHT22;1611;49.394;11.136;2024-02-23T00:57:47;9.30;58.50
3198;DHT22;1611;49.394;11.136;2024-02-23T01:00:14;9.30;57.80
3198;DHT22;1611;49.394;11.136;2024-02-23T01:02:41;9.20;57.10
3198;DHT22;1611;49.394;11.136;2024-02-23T01:05:08;9.10;55.40
3198;DHT22;1611;49.394;11.136;2024-02-23T01:07:34;9.00;55.10
3198;DHT22;1611;49.394;11.136;2024-02-23T01:10:01;8.90;54.10
3198;DHT22;1611;49.394;11.136;2024-02-23T01:12:29;8.90;54.90
3198;DHT22;1611;49.394;11.136;2024-02-23T01:14:57;8.80;54.40
3198;DHT22;1611;49.394;11.136;2024-02-23T01:17:24;8.70;56.00
3198;DHT22;1611;49.394;11.136;2024-02-23T01:19:50;8.80;55.10
3198;DHT22;1611;49.394;11.136;2024-02-23T01:22:17;8.70;53.70
3198;DHT22;1611;49.394;11.136;2024-02-23T01:24:44;8.70;56.40
3198;DHT22;1611;49.394;11.136;2024-02-23T01:27:11;8.80;55.00
3198;DHT22;1611;49.394;11.136;2024-02-23T01:29:37;8.70;54.00
3198;DHT22;1611;49.394;11.136;2024-02-23T01:32:06;8.70;53.20
3198;DHT22;1611;49.394;11.136;2024-02-23T01:34:33;8.60;53.60
3198;DHT22;1611;49.394;11.136;2024-02-23T01:37:00;8.60;55.00
3198;DHT22;1611;49.394;11.136;2024-02-23T01:39:27;8.60;54.80
3198;DHT22;1611;49.394;11.136;2024-02-23T01:41:53;8.60;57.10
3198;DHT22;1611;49.394;11.136;2024-02-23T01:44:21;8.50;56.10
3198;DHT22;1611;49.394;11.136;2024-02-23T01:46:48;8.50;54.40
3198;DHT22;1611;49.394;11.136;2024-02-23T01:49:17;8.40;54.40
3198;DHT22;1611;49.394;11.136;2024-02-23T01:51:44;8.30;55.20
3198;DHT22;1611;49.394;11.136;2024-02-23T01:54:11;8.30;56.40
3198;DHT22;1611;49.394;11.136;2024-02-23T01:56:37;8.30;55.80
3198;DHT22;1611;49.394;11.136;2024-02-23T01:59:06;8.20;57.00
3198;DHT22;1611;49.394;11.136;2024-02-23T02:01:34;8.10;57.20
3198;DHT22;1611;49.394;11.136;2024-02-23T02:04:01;8.10;58.40
3198;DHT22;1611;49.394;11.136;2024-02-23T02:06:29;8.10;59.30
3198;DHT22;1611;49.394;11.136;2024-02-23T02:08:57;8.10;57.90
3198;DHT22;1611;49.394;11.136;2024-02-23T02:11:23;8.10;58.40
3198;DHT22;1611;49.394;11.136;2024-02-23T02:13:50;8.00;59.60
3198;DHT22;1611;49.394;11.136;2024-02-23T02:16:17;8.00;59.00
3198;DHT22;1611;49.394;11.136;2024-02-23T02:18:43;8.00;60.40
3198;DHT22;1611;49.394;11.136;2024-02-23T02:21:11;7.90;60.80
3198;DHT22;1611;49.394;11.136;2024-02-23T02:23:39;7.90;60.30
3198;DHT22;1611;49.394;11.136;2024-02-23T02:26:06;7.90;61.20
3198;DHT22;1611;49.394;11.136;2024-02-23T02:28:33;7.80;61.40
3198;DHT22;1611;49.394;11.136;2024-02-23T02:31:00;7.90;60.50
3198;DHT22;1611;49.394;11.136;2024-02-23T02:33:27;7.80;62.10
3198;DHT22;1611;49.394;11.136;2024-02-23T02:35:53;7.90;60.60
3198;DHT22;1611;49.394;11.136;2024-02-23T02:38:20;7.90;61.90
3198;DHT22;1611;49.394;11.136;2024-02-23T02:40:48;7.90;60.20
3198;DHT22;1611;49.394;11.136;2024-02-23T02:43:15;7.80;61.80
3198;DHT22;1611;49.394;11.136;2024-02-23T02:45:41;7.80;60.90
3198;DHT22;1611;49.394;11.136;2024-02-23T02:48:09;7.80;61.90
3198;DHT22;1611;49.394;11.136;2024-02-23T02:50:36;7.80;62.40
3198;DHT22;1611;49.394;11.136;2024-02-23T02:53:02;7.90;63.70
3198;DHT22;1611;49.394;11.136;2024-02-23T02:55:29;7.90;61.30
3198;DHT22;1611;49.394;11.136;2024-02-23T02:57:57;7.80;61.40
3198;DHT22;1611;49.394;11.136;2024-02-23T03:00:24;7.80;60.80
3198;DHT22;1611;49.394;11.136;2024-02-23T03:02:51;7.80;61.60
3198;DHT22;1611;49.394;11.136;2024-02-23T03:05:18;7.80;62.20
3198;DHT22;1611;49.394;11.136;2024-02-23T03:07:44;7.80;61.10
3198;DHT22;1611;49.394;11.136;2024-02-23T03:10:11;7.70;61.40
3198;DHT22;1611;49.394;11.136;2024-02-23T03:12:38;7.70;62.50
3198;DHT22;1611;49.394;11.136;2024-02-23T03:15:07;7.70;64.10
3198;DHT22;1611;49.394;11.136;2024-02-23T03:17:34;7.70;61.70
3198;DHT22;1611;49.394;11.136;2024-02-23T03:20:01;7.70;61.90
3198;DHT22;1611;49.394;11.136;2024-02-23T03:22:30;7.70;61.00
3198;DHT22;1611;49.394;11.136;2024-02-23T03:24:57;7.70;60.20
3198;DHT22;1611;49.394;11.136;2024-02-23T03:27:28;7.60;59.70
3198;DHT22;1611;49.394;11.136;2024-02-23T03:29:55;7.60;60.00
3198;DHT22;1611;49.394;11.136;2024-02-23T03:32:23;7.70;61.70
3198;DHT22;1611;49.394;11.136;2024-02-23T03:34:50;7.70;64.30
3198;DHT22;1611;49.394;11.136;2024-02-23T03:37:16;7.60;63.80
3198;DHT22;1611;49.394;11.136;2024-02-23T03:39:43;7.70;64.90
3198;DHT22;1611;49.394;11.136;2024-02-23T03:42:10;7.70;62.10
3198;DHT22;1611;49.394;11.136;2024-02-23T03:44:36;7.60;59.50
3198;DHT22;1611;49.394;11.136;2024-02-23T03:47:03;7.70;60.90
3198;DHT22;1611;49.394;11.136;2024-02-23T03:49:31;7.70;64.30
3198;DHT22;1611;49.394;11.136;2024-02-23T03:51:58;7.60;60.00
3198;DHT22;1611;49.394;11.136;2024-02-23T03:54:25;7.50;58.60
3198;DHT22;1611;49.394;11.136;2024-02-23T03:56:51;7.50;58.00
3198;DHT22;1611;49.394;11.136;2024-02-23T03:59:18;7.50;59.10
3198;DHT22;1611;49.394;11.136;2024-02-23T04:01:45;7.70;60.90
3198;DHT22;1611;49.394;11.136;2024-02-23T04:04:11;7.50;61.40
3198;DHT22;1611;49.394;11.136;2024-02-23T04:06:39;7.40;60.20
3198;DHT22;1611;49.394;11.136;2024-02-23T04:09:06;7.40;57.50
3198;DHT22;1611;49.394;11.136;2024-02-23T04:11:34;7.30;58.10
3198;DHT22;1611;49.394;11.136;2024-02-23T04:14:01;7.40;59.60
3198;DHT22;1611;49.394;11.136;2024-02-23T04:16:28;7.40;59.70
3198;DHT22;1611;49.394;11.136;2024-02-23T04:18:54;7.30;58.40
3198;DHT22;1611;49.394;11.136;2024-02-23T04:21:21;7.30;61.30
3198;DHT22;1611;49.394;11.136;2024-02-23T04:23:49;7.30;63.20
3198;DHT22;1611;49.394;11.136;2024-02-23T04:26:16;7.30;63.40
3198;DHT22;1611;49.394;11.136;2024-02-23T04:28:43;7.40;65.00
3198;DHT22;1611;49.394;11.136;2024-02-23T04:31:09;7.30;64.80
3198;DHT22;1611;49.394;11.136;2024-02-23T04:33:36;7.30;58.90
3198;DHT22;1611;49.394;11.136;2024-02-23T04:36:04;7.30;59.50
3198;DHT22;1611;49.394;11.136;2024-02-23T04:38:31;7.20;58.20
3198;DHT22;1611;49.394;11.136;2024-02-23T04:41:02;7.10;56.40
3198;DHT22;1611;49.394;11.136;2024-02-23T04:43:29;7.10;55.90
3198;DHT22;1611;49.394;11.136;2024-02-23T04:45:56;7.10;55.70
3198;DHT22;1611;49.394;11.136;2024-02-23T04:48:23;7.00;55.10
3198;DHT22;1611;49.394;11.136;2024-02-23T04:50:49;7.00;55.90
3198;DHT22;1611;49.394;11.136;2024-02-23T04:53:17;7.00;58.50
3198;DHT22;1611;49.394;11.136;2024-02-23T04:55:44;7.00;55.10
3198;DHT22;1611;49.394;11.136;2024-02-23T04:58:13;7.00;55.50
3198;DHT22;1611;49.394;11.136;2024-02-23T05:00:40;7.20;57.60
3198;DHT22;1611;49.394;11.136;2024-02-23T05:03:06;7.10;58.80
3198;DHT22;1611;49.394;11.136;2024-02-23T05:05:34;7.10;59.20
3198;DHT22;1611;49.394;11.136;2024-02-23T05:08:01;7.10;56.80
3198;DHT22;1611;49.394;11.136;2024-02-23T05:10:28;7.10;57.60
3198;DHT22;1611;49.394;11.136;2024-02-23T05:12:55;7.10;58.70
3198;DHT22;1611;49.394;11.136;2024-02-23T05:15:23;7.10;56.20
3198;DHT22;1611;49.394;11.136;2024-02-23T05:17:50;7.00;54.50
3198;DHT22;1611;49.394;11.136;2024-02-23T05:20:16;7.00;57.40
3198;DHT22;1611;49.394;11.136;2024-02-23T05:22:43;7.10;59.70
3198;DHT22;1611;49.394;11.136;2024-02-23T05:25:10;7.10;62.10
3198;DHT22;1611;49.394;11.136;2024-02-23T05:27:36;7.00;62.10
3198;DHT22;1611;49.394;11.136;2024-02-23T05:30:04;7.00;63.10
3198;DHT22;1611;49.394;11.136;2024-02-23T05:32:33;7.00;60.80
3198;DHT22;1611;49.394;11.136;2024-02-23T05:35:00;7.00;62.70
3198;DHT22;1611;49.394;11.136;2024-02-23T05:37:27;6.90;62.40
3198;DHT22;1611;49.394;11.136;2024-02-23T05:39:53;6.80;60.20
3198;DHT22;1611;49.394;11.136;2024-02-23T05:42:20;6.80;54.90
3198;DHT22;1611;49.394;11.136;2024-02-23T05:44:47;6.70;60.40
3198;DHT22;1611;49.394;11.136;2024-02-23T05:47:14;6.70;62.20
3198;DHT22;1611;49.394;11.136;2024-02-23T05:49:43;6.70;63.10
3198;DHT22;1611;49.394;11.136;2024-02-23T05:52:09;6.70;63.40
3198;DHT22;1611;49.394;11.136;2024-02-23T05:54:36;6.80;64.00
3198;DHT22;1611;49.394;11.136;2024-02-23T05:57:03;6.70;64.20
3198;DHT22;1611;49.394;11.136;2024-02-23T05:59:30;6.60;64.00
3198;DHT22;1611;49.394;11.136;2024-02-23T06:01:57;6.60;64.70
3198;DHT22;1611;49.394;11.136;2024-02-23T06:04:24;6.60;65.20
3198;DHT22;1611;49.394;11.136;2024-02-23T06:06:52;6.50;65.00
3198;DHT22;1611;49.394;11.136;2024-02-23T06:09:19;6.50;63.50
3198;DHT22;1611;49.394;11.136;2024-02-23T06:11:46;6.40;63.80
3198;DHT22;1611;49.394;11.136;2024-02-23T06:14:13;6.40;65.20
3198;DHT22;1611;49.394;11.136;2024-02-23T06:16:39;6.40;65.90
3198;DHT22;1611;49.394;11.136;2024-02-23T06:19:06;6.40;66.70
3198;DHT22;1611;49.394;11.136;2024-02-23T06:21:33;6.40;66.60
3198;DHT22;1611;49.394;11.136;2024-02-23T06:24:01;6.30;65.30
3198;DHT22;1611;49.394;11.136;2024-02-23T06:26:28;6.30;67.60
3198;DHT22;1611;49.394;11.136;2024-02-23T06:28:55;6.30;68.00
3198;DHT22;1611;49.394;11.136;2024-02-23T06:31:22;6.30;68.30
3198;DHT22;1611;49.394;11.136;2024-02-23T06:33:48;6.30;68.70
3198;DHT22;1611;49.394;11.136;2024-02-23T06:36:16;6.30;68.60
3198;DHT22;1611;49.394;11.136;2024-02-23T06:38:43;6.40;69.20
3198;DHT22;1611;49.394;11.136;2024-02-23T06:41:12;6.40;68.00
3198;DHT22;1611;49.394;11.136;2024-02-23T06:43:39;6.40;67.90
3198;DHT22;1611;49.394;11.136;2024-02-23T06:46:07;6.50;68.40
3198;DHT22;1611;49.394;11.136;2024-02-23T06:48:34;6.40;68.50
3198;DHT22;1611;49.394;11.136;2024-02-23T06:51:01;6.40;68.30
3198;DHT22;1611;49.394;11.136;2024-02-23T06:53:28;6.40;68.10
3198;DHT22;1611;49.394;11.136;2024-02-23T06:55:55;6.40;69.00
3198;DHT22;1611;49.394;11.136;2024-02-23T06:58:23;6.50;71.30
3198;DHT22;1611;49.394;11.136;2024-02-23T07:00:50;6.50;71.90
3198;DHT22;1611;49.394;11.136;2024-02-23T07:03:17;6.60;70.10
3198;DHT22;1611;49.394;11.136;2024-02-23T07:05:43;6.50;69.20
3198;DHT22;1611;49.394;11.136;2024-02-23T07:08:11;6.50;68.20
3198;DHT22;1611;49.394;11.136;2024-02-23T07:10:38;6.60;68.50
3198;DHT22;1611;49.394;11.136;2024-02-23T07:13:05;6.50;68.80
3198;DHT22;1611;49.394;11.136;2024-02-23T07:15:34;6.70;69.00
3198;DHT22;1611;49.394;11.136;2024-02-23T07:18:01;6.60;69.50
3198;DHT22;1611;49.394;11.136;2024-02-23T07:20:28;6.70;69.60
3198;DHT22;1611;49.394;11.136;2024-02-23T07:22:54;6.70;68.90
3198;DHT22;1611;49.394;11.136;2024-02-23T07:25:21;6.80;66.20
3198;DHT22;1611;49.394;11.136;2024-02-23T07:27:49;6.90;65.90
3198;DHT22;1611;49.394;11.136;2024-02-23T07:30:16;6.90;64.20
3198;DHT22;1611;49.394;11.136;2024-02-23T07:32:44;6.90;65.30
3198;DHT22;1611;49.394;11.136;2024-02-23T07:35:12;7.00;64.90
3198;DHT22;1611;49.394;11.136;2024-02-23T07:37:39;6.90;65.70
3198;DHT22;1611;49.394;11.136;2024-02-23T07:40:07;7.00;65.80
3198;DHT22;1611;49.394;11.136;2024-02-23T07:42:34;7.00;64.60
3198;DHT22;1611;49.394;11.136;2024-02-23T07:45:02;7.10;62.90
3198;DHT22;1611;49.394;11.136;2024-02-23T07:47:29;7.20;62.40
3198;DHT22;1611;49.394;11.136;2024-02-23T07:49:58;7.30;63.30
3198;DHT22;1611;49.394;11.136;2024-02-23T07:52:25;7.30;60.70
3198;DHT22;1611;49.394;11.136;2024-02-23T07:54:51;7.20;61.80
3198;DHT22;1611;49.394;11.136;2024-02-23T07:57:18;7.30;59.70
3198;DHT22;1611;49.394;11.136;2024-02-23T07:59:47;7.30;59.50
3198;DHT22;1611;49.394;11.136;2024-02-23T08:02:14;7.40;58.70
3198;DHT22;1611;49.394;11.136;2024-02-23T08:04:41;7.50;59.10
3198;DHT22;1611;49.394;11.136;2024-02-23T08:07:09;7.60;59.50
3198;DHT22;1611;49.394;11.136;2024-02-23T08:09:36;7.50;59.60
3198;DHT22;1611;49.394;11.136;2024-02-23T08:12:04;7.60;59.50
3198;DHT22;1611;49.394;11.136;2024-02-23T08:14:30;7.50;59.20
3198;DHT22;1611;49.394;11.136;2024-02-23T08:16:58;7.50;58.60
3198;DHT22;1611;49.394;11.136;2024-02-23T08:19:25;7.50;58.10
3198;DHT22;1611;49.394;11.136;2024-02-23T08:21:51;7.50;58.20
3198;DHT22;1611;49.394;11.136;2024-02-23T08:24:19;7.60;58.50
3198;DHT22;1611;49.394;11.136;2024-02-23T08:26:46;7.70;58.50
3198;DHT22;1611;49.394;11.136;2024-02-23T08:29:13;7.80;58.60
3198;DHT22;1611;49.394;11.136;2024-02-23T08:31:40;7.90;56.20
3198;DHT22;1611;49.394;11.136;2024-02-23T08:34:07;8.20;57.90
3198;DHT22;1611;49.394;11.136;2024-02-23T08:36:33;8.10;58.10
3198;DHT22;1611;49.394;11.136;2024-02-23T08:39:00;8.10;57.80
3198;DHT22;1611;49.394;11.136;2024-02-23T08:41:29;8.10;56.90
3198;DHT22;1611;49.394;11.136;2024-02-23T08:43:56;8.20;56.40
3198;DHT22;1611;49.394;11.136;2024-02-23T08:46:23;8.30;56.10
3198;DHT22;1611;49.394;11.136;2024-02-23T08:48:50;8.40;55.30
3198;DHT22;1611;49.394;11.136;2024-02-23T08:51:16;8.50;54.60
3198;DHT22;1611;49.394;11.136;2024-02-23T08:53:43;8.60;54.60
3198;DHT22;1611;49.394;11.136;2024-02-23T08:56:11;8.60;53.90
3198;DHT22;1611;49.394;11.136;2024-02-23T08:58:39;8.70;53.10
3198;DHT22;1611;49.394;11.136;2024-02-23T09:01:06;8.60;51.10
3198;DHT22;1611;49.394;11.136;2024-02-23T09:03:34;8.80;52.40
3198;DHT22;1611;49.394;11.136;2024-02-23T09:06:01;8.50;50.70
3198;DHT22;1611;49.394;11.136;2024-02-23T09:08:29;8.30;49.80
3198;DHT22;1611;49.394;11.136;2024-02-23T09:10:56;8.40;51.10
3198;DHT22;1611;49.394;11.136;2024-02-23T09:13:23;8.30;50.90
3198;DHT22;1611;49.394;11.136;2024-02-23T09:15:53;8.30;49.60
3198;DHT22;1611;49.394;11.136;2024-02-23T09:18:20;8.40;50.20
3198;DHT22;1611;49.394;11.136;2024-02-23T09:20:47;8.20;48.90
3198;DHT22;1611;49.394;11.136;2024-02-23T09:23:13;8.20;49.50
3198;DHT22;1611;49.394;11.136;2024-02-23T09:25:40;8.20;42.10
3198;DHT22;1611;49.394;11.136;2024-02-23T09:28:07;8.30;47.50
3198;DHT22;1611;49.394;11.136;2024-02-23T09:30:36;8.40;49.60
3198;DHT22;1611;49.394;11.136;2024-02-23T09:33:05;8.40;48.70
3198;DHT22;1611;49.394;11.136;2024-02-23T09:35:31;8.40;44.60
3198;DHT22;1611;49.394;11.136;2024-02-23T09:37:58;8.50;44.70
3198;DHT22;1611;49.394;11.136;2024-02-23T09:40:25;8.50;44.20
3198;DHT22;1611;49.394;11.136;2024-02-23T09:42:55;8.50;43.40
3198;DHT22;1611;49.394;11.136;2024-02-23T09:45:23;8.70;42.60
3198;DHT22;1611;49.394;11.136;2024-02-23T09:47:50;8.80;42.90
3198;DHT22;1611;49.394;11.136;2024-02-23T09:50:21;9.00;45.80
3198;DHT22;1611;49.394;11.136;2024-02-23T09:52:49;9.20;54.80
3198;DHT22;1611;49.394;11.136;2024-02-23T09:55:16;9.10;42.70
3198;DHT22;1611;49.394;11.136;2024-02-23T09:57:44;9.10;43.10
3198;DHT22;1611;49.394;11.136;2024-02-23T10:00:13;9.10;42.20
3198;DHT22;1611;49.394;11.136;2024-02-23T10:02:43;9.10;41.50
3198;DHT22;1611;49.394;11.136;2024-02-23T10:05:10;9.10;41.20
3198;DHT22;1611;49.394;11.136;2024-02-23T10:07:39;8.90;40.30
3198;DHT22;1611;49.394;11.136;2024-02-23T10:10:07;8.80;40.00
3198;DHT22;1611;49.394;11.136;2024-02-23T10:12:34;8.90;41.10
3198;DHT22;1611;49.394;11.136;2024-02-23T10:15:02;8.90;42.00
3198;DHT22;1611;49.394;11.136;2024-02-23T10:17:29;8.80;39.20
3198;DHT22;1611;49.394;11.136;2024-02-23T10:19:56;8.80;40.00
3198;DHT22;1611;49.394;11.136;2024-02-23T10:22:24;8.80;41.80
3198;DHT22;1611;49.394;11.136;2024-02-23T10:24:52;8.80;42.90
3198;DHT22;1611;49.394;11.136;2024-02-23T10:27:21;8.70;41.30
3198;DHT22;1611;49.394;11.136;2024-02-23T10:29:49;8.80;38.50
3198;DHT22;1611;49.394;11.136;2024-02-23T10:32:18;8.90;37.10
3198;DHT22;1611;49.394;11.136;2024-02-23T10:34:48;8.90;38.90
3198;DHT22;1611;49.394;11.136;2024-02-23T10:37:15;8.90;40.30
3198;DHT22;1611;49.394;11.136;2024-02-23T10:39:42;8.70;37.40
3198;DHT22;1611;49.394;11.136;2024-02-23T10:42:10;8.60;38.40
3198;DHT22;1611;49.394;11.136;2024-02-23T10:44:39;8.70;39.50
3198;DHT22;1611;49.394;11.136;2024-02-23T10:47:07;8.80;39.60
3198;DHT22;1611;49.394;11.136;2024-02-23T10:49:34;8.80;38.20
3198;DHT22;1611;49.394;11.136;2024-02-23T10:52:02;8.70;38.90
3198;DHT22;1611;49.394;11.136;2024-02-23T10:54:31;8.90;40.00
3198;DHT22;1611;49.394;11.136;2024-02-23T10:56:58;9.00;39.70
3198;DHT22;1611;49.394;11.136;2024-02-23T10:59:26;8.90;38.30
3198;DHT22;1611;49.394;11.136;2024-02-23T11:01:54;8.90;39.80
3198;DHT22;1611;49.394;11.136;2024-02-23T11:04:23;9.00;38.50
3198;DHT22;1611;49.394;11.136;2024-02-23T11:06:50;8.90;38.60
3198;DHT22;1611;49.394;11.136;2024-02-23T11:09:20;9.00;39.30
3198;DHT22;1611;49.394;11.136;2024-02-23T11:11:52;9.00;39.00
3198;DHT22;1611;49.394;11.136;2024-02-23T11:14:30;9.10;39.60
3198;DHT22;1611;49.394;11.136;2024-02-23T11:16:58;9.40;40.20
3198;DHT22;1611;49.394;11.136;2024-02-23T11:19:32;9.50;39.30
3198;DHT22;1611;49.394;11.136;2024-02-23T11:22:00;9.70;39.00
3198;DHT22;1611;49.394;11.136;2024-02-23T11:24:28;9.30;37.30
3198;DHT22;1611;49.394;11.136;2024-02-23T11:26:57;9.40;37.80
3198;DHT22;1611;49.394;11.136;2024-02-23T11:29:26;9.40;37.60
3198;DHT22;1611;49.394;11.136;2024-02-23T11:31:55;9.30;38.40
3198;DHT22;1611;49.394;11.136;2024-02-23T11:34:27;9.30;39.10
3198;DHT22;1611;49.394;11.136;2024-02-23T11:36:54;9.40;38.00
3198;DHT22;1611;49.394;11.136;2024-02-23T11:39:22;9.30;37.60
3198;DHT22;1611;49.394;11.136;2024-02-23T11:41:49;9.40;38.80
3198;DHT22;1611;49.394;11.136;2024-02-23T11:44:16;9.50;36.80
3198;DHT22;1611;49.394;11.136;2024-02-23T11:46:43;9.50;37.50
3198;DHT22;1611;49.394;11.136;2024-02-23T11:49:12;9.60;37.70
3198;DHT22;1611;49.394;11.136;2024-02-23T11:51:39;9.60;38.90
3198;DHT22;1611;49.394;11.136;2024-02-23T11:54:06;9.60;40.30
3198;DHT22;1611;49.394;11.136;2024-02-23T11:56:33;9.50;40.70
3198;DHT22;1611;49.394;11.136;2024-02-23T11:59:01;9.40;40.90
3198;DHT22;1611;49.394;11.136;2024-02-23T12:01:29;9.30;40.90
3198;DHT22;1611;49.394;11.136;2024-02-23T12:03:56;9.10;41.90
3198;DHT22;1611;49.394;11.136;2024-02-23T12:06:25;9.10;43.00
3198;DHT22;1611;49.394;11.136;2024-02-23T12:08:54;9.20;43.40
3198;DHT22;1611;49.394;11.136;2024-02-23T12:11:24;9.30;43.30
3198;DHT22;1611;49.394;11.136;2024-02-23T12:13:50;9.20;43.50
3198;DHT22;1611;49.394;11.136;2024-02-23T12:16:17;9.10;43.60
3198;DHT22;1611;49.394;11.136;2024-02-23T12:18:44;9.20;44.50
3198;DHT22;1611;49.394;11.136;2024-02-23T12:21:11;9.30;45.80
3198;DHT22;1611;49.394;11.136;2024-02-23T12:23:41;9.50;45.20
3198;DHT22;1611;49.394;11.136;2024-02-23T12:26:07;9.60;45.30
3198;DHT22;1611;49.394;11.136;2024-02-23T12:28:34;9.50;44.60
3198;DHT22;1611;49.394;11.136;2024-02-23T12:31:01;9.40;46.30
3198;DHT22;1611;49.394;11.136;2024-02-23T12:33:28;9.50;46.30
3198;DHT22;1611;49.394;11.136;2024-02-23T12:35:56;9.60;46.00
3198;DHT22;1611;49.394;11.136;2024-02-23T12:38:22;9.60;46.70
3198;DHT22;1611;49.394;11.136;2024-02-23T12:40:51;9.70;46.80
3198;DHT22;1611;49.394;11.136;2024-02-23T12:43:18;9.70;46.00
3198;DHT22;1611;49.394;11.136;2024-02-23T12:45:47;9.70;45.70
3198;DHT22;1611;49.394;11.136;2024-02-23T12:48:14;9.60;45.70
3198;DHT22;1611;49.394;11.136;2024-02-23T12:50:41;9.70;49.80
3198;DHT22;1611;49.394;11.136;2024-02-23T12:53:08;9.70;44.80
3198;DHT22;1611;49.394;11.136;2024-02-23T12:55:36;9.80;43.70
3198;DHT22;1611;49.394;11.136;2024-02-23T12:58:04;9.60;43.40
3198;DHT22;1611;49.394;11.136;2024-02-23T13:00:31;9.70;44.90
3198;DHT22;1611;49.394;11.136;2024-02-23T13:02:57;9.40;44.20
3198;DHT22;1611;49.394;11.136;2024-02-23T13:05:24;9.50;43.90
3198;DHT22;1611;49.394;11.136;2024-02-23T13:07:51;9.40;44.30
3198;DHT22;1611;49.394;11.136;2024-02-23T13:10:18;9.40;43.70
3198;DHT22;1611;49.394;11.136;2024-02-23T13:12:45;9.30;42.10
3198;DHT22;1611;49.394;11.136;2024-02-23T13:15:13;9.30;43.10
3198;DHT22;1611;49.394;11.136;2024-02-23T13:17:41;9.30;41.70
3198;DHT22;1611;49.394;11.136;2024-02-23T13:20:08;9.40;42.20
3198;DHT22;1611;49.394;11.136;2024-02-23T13:22:38;9.40;41.40
3198;DHT22;1611;49.394;11.136;2024-02-23T13:25:05;9.30;41.20
3198;DHT22;1611;49.394;11.136;2024-02-23T13:27:32;9.40;40.30
3198;DHT22;1611;49.394;11.136;2024-02-23T13:29:58;9.30;41.30
3198;DHT22;1611;49.394;11.136;2024-02-23T13:32:26;9.30;40.70
3198;DHT22;1611;49.394;11.136;2024-02-23T13:34:53;9.20;39.00
3198;DHT22;1611;49.394;11.136;2024-02-23T13:37:20;9.30;39.90
3198;DHT22;1611;49.394;11.136;2024-02-23T13:39:47;9.40;40.90
3198;DHT22;1611;49.394;11.136;2024-02-23T13:42:14;9.50;40.00
3198;DHT22;1611;49.394;11.136;2024-02-23T13:44:40;9.60;40.00
3198;DHT22;1611;49.394;11.136;2024-02-23T13:47:07;9.60;39.60
3198;DHT22;1611;49.394;11.136;2024-02-23T13:49:35;9.60;38.20
3198;DHT22;1611;49.394;11.136;2024-02-23T13:52:02;9.60;39.50
3198;DHT22;1611;49.394;11.136;2024-02-23T13:54:29;9.60;40.10
3198;DHT22;1611;49.394;11.136;2024-02-23T13:56:56;9.60;40.40
3198;DHT22;1611;49.394;11.136;2024-02-23T13:59:22;9.80;41.20
3198;DHT22;1611;49.394;11.136;2024-02-23T14:01:49;9.60;39.50
3198;DHT22;1611;49.394;11.136;2024-02-23T14:04:17;9.50;40.30
3198;DHT22;1611;49.394;11.136;2024-02-23T14:06:45;9.60;40.80
3198;DHT22;1611;49.394;11.136;2024-02-23T14:09:12;9.60;40.60
3198;DHT22;1611;49.394;11.136;2024-02-23T14:11:39;9.70;40.20
3198;DHT22;1611;49.394;11.136;2024-02-23T14:14:06;9.60;40.50
3198;DHT22;1611;49.394;11.136;2024-02-23T14:16:33;9.50;40.10
3198;DHT22;1611;49.394;11.136;2024-02-23T14:19:00;9.60;41.70
3198;DHT22;1611;49.394;11.136;2024-02-23T14:21:27;9.70;41.10
3198;DHT22;1611;49.394;11.136;2024-02-23T14:23:54;9.70;41.00
3198;DHT22;1611;49.394;11.136;2024-02-23T14:26:21;9.60;42.50
3198;DHT22;1611;49.394;11.136;2024-02-23T14:28:48;9.60;42.30
3198;DHT22;1611;49.394;11.136;2024-02-23T14:31:15;9.60;40.80
3198;DHT22;1611;49.394;11.136;2024-02-23T14:33:42;9.60;41.90
3198;DHT22;1611;49.394;11.136;2024-02-23T14:36:08;9.70;41.60
3198;DHT22;1611;49.394;11.136;2024-02-23T14:38:35;9.70;41.30
3198;DHT22;1611;49.394;11.136;2024-02-23T14:41:03;9.70;41.40
3198;DHT22;1611;49.394;11.136;2024-02-23T14:43:34;9.60;41.20
3198;DHT22;1611;49.394;11.136;2024-02-23T14:46:01;9.60;41.20
3198;DHT22;1611;49.394;11.136;2024-02-23T14:48:28;9.70;42.30
3198;DHT22;1611;49.394;11.136;2024-02-23T14:50:54;9.60;42.10
3198;DHT22;1611;49.394;11.136;2024-02-23T14:53:23;9.70;42.60
3198;DHT22;1611;49.394;11.136;2024-02-23T14:55:51;9.60;44.20
3198;DHT22;1611;49.394;11.136;2024-02-23T14:58:19;9.60;44.50
3198;DHT22;1611;49.394;11.136;2024-02-23T15:00:46;9.40;43.70
3198;DHT22;1611;49.394;11.136;2024-02-23T15:03:13;9.30;43.80
3198;DHT22;1611;49.394;11.136;2024-02-23T15:05:40;9.30;44.90
3198;DHT22;1611;49.394;11.136;2024-02-23T15:08:07;9.20;44.50
3198;DHT22;1611;49.394;11.136;2024-02-23T15:10:36;9.10;45.50
3198;DHT22;1611;49.394;11.136;2024-02-23T15:13:03;9.10;46.40
3198;DHT22;1611;49.394;11.136;2024-02-23T15:15:32;9.20;45.70
3198;DHT22;1611;49.394;11.136;2024-02-23T15:18:01;9.20;45.80
3198;DHT22;1611;49.394;11.136;2024-02-23T15:20:28;9.20;46.20
3198;DHT22;1611;49.394;11.136;2024-02-23T15:22:54;9.10;45.00
3198;DHT22;1611;49.394;11.136;2024-02-23T15:25:22;9.00;45.80
3198;DHT22;1611;49.394;11.136;2024-02-23T15:27:49;9.10;46.30
3198;DHT22;1611;49.394;11.136;2024-02-23T15:30:18;9.00;46.60
3198;DHT22;1611;49.394;11.136;2024-02-23T15:32:46;9.00;46.80
3198;DHT22;1611;49.394;11.136;2024-02-23T15:35:13;9.00;46.70
3198;DHT22;1611;49.394;11.136;2024-02-23T15:37:40;9.00;46.30
3198;DHT22;1611;49.394;11.136;2024-02-23T15:40:07;8.90;45.70
3198;DHT22;1611;49.394;11.136;2024-02-23T15:42:34;8.80;45.90
3198;DHT22;1611;49.394;11.136;2024-02-23T15:45:02;8.80;46.40
3198;DHT22;1611;49.394;11.136;2024-02-23T15:47:29;8.80;47.20
3198;DHT22;1611;49.394;11.136;2024-02-23T15:49:57;8.70;47.60
3198;DHT22;1611;49.394;11.136;2024-02-23T15:52:24;8.70;47.70
3198;DHT22;1611;49.394;11.136;2024-02-23T15:54:51;8.80;48.40
3198;DHT22;1611;49.394;11.136;2024-02-23T15:57:18;8.60;47.90
3198;DHT22;1611;49.394;11.136;2024-02-23T15:59:46;8.60;47.80
3198;DHT22;1611;49.394;11.136;2024-02-23T16:02:12;8.60;49.60